CheckWX is a tool to help pilots better visualize weather data.  It is not intended as a substitute for an official pre-flight weather briefing.

09:05:19 UTC

KSVN METAR
Hunter AAF Airport
Savannah, Georgia, USA
Current

9 mins ago

KSVN 220856Z AUTO 00000KT 8SM CLR 18/18 A3008 RMK AO2 SLP189 T01820177 57006 FZRANO $
Observed
Feb-22 @ 08:56 UTC
Visibility
8 SM
Flight Rules
VFR
Cloud Levels
  • Clear skies
Temperature
18°C / 64°F
Dewpoint
18°C / 64°F
Humidity
100%
Altimeter
30.08" Hg
Pressure
1018.9 hPa
Previous

1 hour ago

KSVN 220756Z AUTO 00000KT 10SM CLR 18/17 A3009 RMK AO2 SLP192 T01770172 FZRANO $
Observed
Feb-22 @ 07:56 UTC
Visibility
10 SM
Flight Rules
VFR
Cloud Levels
  • Clear skies
Temperature
18°C / 64°F
Dewpoint
17°C / 63°F
Humidity
94%
Altimeter
30.09" Hg
Pressure
1019.2 hPa
Previous

2 hours ago

KSVN 220656Z AUTO 00000KT 10SM CLR 17/16 A3010 RMK AO2 SLP196 T01710164 FZRANO $
Observed
Feb-22 @ 06:56 UTC
Visibility
10 SM
Flight Rules
VFR
Cloud Levels
  • Clear skies
Temperature
17°C / 63°F
Dewpoint
16°C / 61°F
Humidity
94%
Altimeter
30.1" Hg
Pressure
1019.6 hPa